Time;durP1;ratioP1;P1;durP2;ratioP2;P2;SDS_P1;SDS_P2;PMS_P1;PMS_P2;Temp;Humidity;BMP_temperature;BMP_pressure;BME280_temperature;BME280_humidity;BME280_pressure;Samples;Min_cycle;Max_cycle;Signal;HPM_P1;HPM_P2
2023/07/03 00:02:00;;;;;;;;;6.67;2.00;;;;;21.16;89.46;101181.19;5035635;28;60092;-74
2023/07/03 00:04:25;;;;;;;;;2.67;2.00;;;;;21.10;90.87;101184.06;5036289;28;47374;-75
2023/07/03 00:06:51;;;;;;;;;4.33;3.00;;;;;21.05;92.16;101189.53;5037109;28;45273;-75
2023/07/03 00:09:16;;;;;;;;;3.00;2.00;;;;;21.04;93.18;101178.81;5036195;28;48775;-74
2023/07/03 00:11:42;;;;;;;;;1.67;1.67;;;;;21.04;93.89;101181.50;5036069;28;45435;-74
2023/07/03 00:14:07;;;;;;;;;5.33;2.33;;;;;20.99;94.45;101173.59;5035842;28;65590;-75
2023/07/03 00:16:32;;;;;;;;;3.67;3.00;;;;;20.99;95.03;101168.22;5035187;28;67174;-75
2023/07/03 00:18:58;;;;;;;;;4.00;2.33;;;;;21.00;96.75;101170.00;5036188;28;64859;-74
2023/07/03 00:21:25;;;;;;;;;4.33;2.00;;;;;21.00;96.82;101178.03;5036437;28;51847;-74
2023/07/03 00:23:50;;;;;;;;;4.00;3.00;;;;;20.97;97.36;101163.81;5025099;28;46987;-74
2023/07/03 00:26:15;;;;;;;;;2.67;2.67;;;;;20.97;97.38;101169.19;5025218;28;45268;-75
2023/07/03 00:28:41;;;;;;;;;3.00;2.33;;;;;20.95;99.17;101171.03;5035051;28;64788;-74
2023/07/03 00:31:06;;;;;;;;;3.00;3.00;;;;;20.90;99.62;101166.66;5034549;28;62040;-75
2023/07/03 00:33:31;;;;;;;;;3.00;2.33;;;;;20.89;99.33;101158.66;5035164;28;66295;-75
2023/07/03 00:35:57;;;;;;;;;3.00;1.67;;;;;20.86;99.43;101161.41;5035951;28;61399;-75
2023/07/03 00:38:22;;;;;;;;;3.33;2.00;;;;;20.86;100.00;101166.78;5035663;28;61162;-75
2023/07/03 00:40:47;;;;;;;;;2.33;1.33;;;;;20.81;100.00;101166.88;5035071;28;62918;-75
2023/07/03 00:43:13;;;;;;;;;3.33;3.00;;;;;20.81;100.00;101156.16;5035743;28;55430;-75
2023/07/03 00:45:38;;;;;;;;;2.00;2.00;;;;;20.80;100.00;101165.13;5036249;28;45320;-74
2023/07/03 00:48:04;;;;;;;;;3.00;2.00;;;;;20.83;100.00;101156.13;5034471;28;63252;-74
2023/07/03 00:50:29;;;;;;;;;4.00;1.33;;;;;20.85;100.00;101149.78;5035057;28;45662;-75
2023/07/03 00:53:01;;;;;;;;;4.00;3.00;;;;;20.87;100.00;101153.31;5035455;28;68079;-75
2023/07/03 00:55:26;;;;;;;;;4.00;2.67;;;;;20.83;100.00;101151.66;5035165;28;45204;-75
2023/07/03 00:57:51;;;;;;;;;7.00;2.33;;;;;20.83;100.00;101154.34;5035091;28;45396;-75
2023/07/03 01:00:18;;;;;;;;;3.00;2.33;;;;;20.81;100.00;101158.84;5035766;28;62926;-75
2023/07/03 01:02:58;;;;;;;;;2.00;2.00;;;;;20.80;100.00;101162.44;5035875;28;47340;-75
2023/07/03 01:05:39;;;;;;;;;2.00;0.67;;;;;20.81;100.00;101157.97;5035080;28;45525;-75
2023/07/03 01:08:05;;;;;;;;;3.33;2.00;;;;;20.79;100.00;101158.00;5036147;28;45317;-75
2023/07/03 01:10:31;;;;;;;;;3.00;3.00;;;;;20.81;100.00;101148.09;5036232;28;47075;-75
2023/07/03 01:13:00;;;;;;;;;1.00;1.00;;;;;20.82;100.00;101157.91;5034378;28;59534;-76
2023/07/03 01:15:28;;;;;;;;;2.33;2.00;;;;;20.81;100.00;101156.16;5034641;28;45450;-74
2023/07/03 01:17:56;;;;;;;;;3.33;2.00;;;;;20.81;100.00;101145.41;5034923;28;45234;-75
2023/07/03 01:20:23;;;;;;;;;5.00;2.67;;;;;20.81;100.00;101147.22;5031773;28;45552;-75
2023/07/03 01:22:54;;;;;;;;;2.00;2.00;;;;;20.83;100.00;101148.09;5034708;28;46603;-75
2023/07/03 01:25:22;;;;;;;;;4.00;2.00;;;;;20.82;100.00;101144.50;5034541;28;45436;-75
2023/07/03 01:27:50;;;;;;;;;4.00;3.00;;;;;20.83;100.00;101148.97;5035793;28;45379;-75
2023/07/03 01:30:17;;;;;;;;;3.67;2.00;;;;;20.85;100.00;101148.91;5034549;28;45320;-75
2023/07/03 01:32:45;;;;;;;;;4.00;3.00;;;;;20.86;100.00;101153.34;5031492;28;47755;-75
2023/07/03 01:35:11;;;;;;;;;6.67;2.67;;;;;20.84;100.00;101148.03;5035420;28;45516;-75
2023/07/03 01:37:39;;;;;;;;;3.00;3.00;;;;;20.84;100.00;101145.34;5036063;28;45407;-75
2023/07/03 01:40:07;;;;;;;;;5.67;2.00;;;;;20.87;100.00;101152.44;5034670;28;45358;-75
2023/07/03 01:42:37;;;;;;;;;6.00;3.00;;;;;20.82;100.00;101147.16;5034519;28;47312;-75
2023/07/03 01:45:04;;;;;;;;;5.00;3.33;;;;;20.80;100.00;101153.53;5030440;28;45265;-74
2023/07/03 01:47:29;;;;;;;;;4.00;2.67;;;;;20.76;100.00;101155.41;5034351;28;45404;-74
2023/07/03 01:49:55;;;;;;;;;4.67;3.00;;;;;20.75;100.00;101156.31;5034407;28;64852;-75
2023/07/03 01:52:24;;;;;;;;;4.67;3.00;;;;;20.74;100.00;101149.19;5034897;28;47471;-74
2023/07/03 01:54:55;;;;;;;;;2.67;2.67;;;;;20.74;100.00;101151.88;5031504;28;45399;-75
2023/07/03 01:57:31;;;;;;;;;2.33;2.33;;;;;20.73;100.00;101154.59;5034611;28;45313;-76
2023/07/03 01:59:58;;;;;;;;;3.67;1.00;;;;;20.71;100.00;101151.94;5034567;28;45428;-74
2023/07/03 02:02:28;;;;;;;;;4.00;2.67;;;;;20.70;100.00;101152.00;5034007;28;47315;-75
2023/07/03 02:05:16;;;;;;;;;2.33;1.00;;;;;20.67;100.00;101147.59;5046133;28;45530;-75
2023/07/03 02:07:43;;;;;;;;;3.33;3.00;;;;;20.63;100.00;101141.41;5034262;28;45209;-75
2023/07/03 02:10:09;;;;;;;;;3.33;3.33;;;;;20.64;100.00;101145.88;5035567;28;45553;-75
2023/07/03 02:12:34;;;;;;;;;3.67;3.00;;;;;20.69;100.00;101147.56;5033556;28;46613;-74
2023/07/03 02:15:02;;;;;;;;;4.33;3.00;;;;;20.69;100.00;101148.44;5035539;28;45193;-75
2023/07/03 02:17:27;;;;;;;;;5.00;2.67;;;;;20.71;100.00;101143.00;5035479;28;45308;-75
2023/07/03 02:19:54;;;;;;;;;5.00;5.00;;;;;20.69;100.00;101142.19;5035402;28;45546;-75
2023/07/03 02:22:19;;;;;;;;;4.33;2.00;;;;;20.67;100.00;101139.56;5035115;28;46261;-75
2023/07/03 02:24:45;;;;;;;;;3.33;3.00;;;;;20.69;100.00;101137.69;5036827;28;57866;-74
2023/07/03 02:27:10;;;;;;;;;4.00;3.33;;;;;20.75;100.00;101133.97;5037995;28;65930;-75
2023/07/03 02:29:35;;;;;;;;;2.33;2.33;;;;;20.76;100.00;101130.34;5037274;28;62567;-75
2023/07/03 02:32:01;;;;;;;;;4.33;4.33;;;;;20.77;100.00;101124.94;5037195;28;57834;-75
2023/07/03 02:34:28;;;;;;;;;3.00;3.00;;;;;20.75;100.00;101126.78;5038714;28;45424;-75
2023/07/03 02:36:58;;;;;;;;;4.33;3.00;;;;;20.71;100.00;101129.59;5038402;28;45539;-75
2023/07/03 02:39:24;;;;;;;;;4.33;3.00;;;;;20.69;100.00;101120.72;5037945;28;45749;-75
2023/07/03 02:41:49;;;;;;;;;4.00;4.00;;;;;20.68;100.00;101114.47;5038503;28;47499;-74
2023/07/03 02:44:15;;;;;;;;;3.00;3.00;;;;;20.72;100.00;101134.94;5038049;28;45365;-75
2023/07/03 02:46:41;;;;;;;;;4.67;4.67;;;;;20.74;100.00;101141.16;5032767;28;61747;-74
2023/07/03 02:49:07;;;;;;;;;4.00;2.33;;;;;20.74;100.00;101129.53;5038050;28;45434;-75
2023/07/03 02:51:32;;;;;;;;;3.00;2.00;;;;;20.74;100.00;101121.47;5038098;28;46149;-75
2023/07/03 02:53:58;;;;;;;;;5.00;3.33;;;;;20.75;100.00;101131.28;5036858;28;62343;-75
2023/07/03 02:56:23;;;;;;;;;3.00;3.00;;;;;20.72;100.00;101143.00;5037680;28;58203;-75
2023/07/03 02:58:48;;;;;;;;;7.00;5.00;;;;;20.66;100.00;101132.41;5038473;28;45187;-75
2023/07/03 03:01:14;;;;;;;;;7.33;3.00;;;;;20.59;100.00;101131.69;5036642;28;71968;-75
2023/07/03 03:03:40;;;;;;;;;5.67;3.00;;;;;20.54;100.00;101132.72;5038056;28;45197;-75
2023/07/03 03:06:05;;;;;;;;;3.00;3.00;;;;;20.55;100.00;101148.78;5037864;28;45194;-74
2023/07/03 03:08:30;;;;;;;;;2.67;2.67;;;;;20.55;100.00;101135.34;5037828;28;50260;-75
2023/07/03 03:10:56;;;;;;;;;5.67;3.00;;;;;20.53;100.00;101134.53;5037095;28;68232;-75
2023/07/03 03:13:21;;;;;;;;;4.33;3.33;;;;;20.54;100.00;101143.44;5037049;28;67367;-74
2023/07/03 03:15:46;;;;;;;;;4.00;3.67;;;;;20.54;100.00;101127.34;5038156;28;45287;-75
2023/07/03 03:18:12;;;;;;;;;8.00;5.00;;;;;20.53;100.00;101125.59;5037297;28;61747;-75
2023/07/03 03:20:37;;;;;;;;;4.67;2.33;;;;;20.51;100.00;101122.09;5037642;28;47331;-75
2023/07/03 03:23:03;;;;;;;;;7.00;5.00;;;;;20.48;100.00;101122.16;5037815;28;45456;-75
2023/07/03 03:25:29;;;;;;;;;4.00;4.00;;;;;20.46;100.00;101123.97;5037126;28;53167;-74
2023/07/03 03:27:55;;;;;;;;;4.00;4.00;;;;;20.42;100.00;101126.72;5036860;28;45454;-75
2023/07/03 03:30:21;;;;;;;;;4.00;4.00;;;;;20.44;100.00;101131.16;5037041;28;46256;-75
2023/07/03 03:32:46;;;;;;;;;8.00;7.00;;;;;20.44;100.00;101129.34;5031908;28;45400;-75
2023/07/03 03:35:12;;;;;;;;;7.33;6.00;;;;;20.44;100.00;101132.03;5037446;28;45189;-75
2023/07/03 03:37:37;;;;;;;;;6.33;5.00;;;;;20.45;100.00;101138.28;5036747;28;59504;-74
2023/07/03 03:40:03;;;;;;;;;7.67;5.00;;;;;20.44;100.00;101134.72;5036951;28;51082;-75
2023/07/03 03:42:29;;;;;;;;;9.00;5.00;;;;;20.37;100.00;101123.25;5037286;28;45250;-75
2023/07/03 03:44:54;;;;;;;;;6.67;5.00;;;;;20.32;100.00;101121.63;5037065;28;57852;-75
2023/07/03 03:47:21;;;;;;;;;7.67;6.00;;;;;20.28;100.00;101118.13;5037347;28;59853;-74
2023/07/03 03:49:46;;;;;;;;;7.00;6.00;;;;;20.31;100.00;101123.41;5036954;28;47710;-74
2023/07/03 03:52:12;;;;;;;;;5.67;4.33;;;;;20.35;100.00;101122.44;5037402;28;45404;-74
2023/07/03 03:54:37;;;;;;;;;13.67;5.00;;;;;20.36;100.00;101121.50;5036458;28;45355;-75
2023/07/03 03:57:04;;;;;;;;;6.00;4.33;;;;;20.35;100.00;101119.75;5036518;28;62286;-74
2023/07/03 03:59:30;;;;;;;;;7.67;5.67;;;;;20.38;100.00;101122.34;5036950;28;48077;-75
2023/07/03 04:01:55;;;;;;;;;6.00;6.00;;;;;20.42;100.00;101126.72;5037115;28;45328;-75
2023/07/03 04:04:21;;;;;;;;;7.00;5.33;;;;;20.43;100.00;101132.97;5036486;28;61012;-76
2023/07/03 04:06:46;;;;;;;;;4.00;4.00;;;;;20.35;100.00;101132.28;5035719;28;60809;-74
2023/07/03 04:09:12;;;;;;;;;7.33;6.67;;;;;20.31;100.00;101130.59;5036775;28;46142;-75
2023/07/03 04:11:38;;;;;;;;;6.00;6.00;;;;;20.31;100.00;101127.91;5036791;28;45434;-75
2023/07/03 04:14:03;;;;;;;;;6.33;5.33;;;;;20.35;100.00;101129.59;5036611;28;57259;-74
2023/07/03 04:16:30;;;;;;;;;6.33;6.00;;;;;20.37;100.00;101130.44;5036236;28;65221;-75
2023/07/03 04:18:55;;;;;;;;;4.67;4.67;;;;;20.39;100.00;101124.09;5035529;28;46377;-75
2023/07/03 04:21:20;;;;;;;;;5.67;4.33;;;;;20.36;100.00;101126.00;5036146;28;68796;-76
2023/07/03 04:23:47;;;;;;;;;8.33;6.00;;;;;20.38;100.00;101133.06;5036190;28;49163;-75
2023/07/03 04:26:12;;;;;;;;;12.00;4.00;;;;;20.39;100.00;101129.47;5037117;28;45575;-75
2023/07/03 04:28:37;;;;;;;;;7.33;4.33;;;;;20.42;100.00;101134.75;5035620;28;70178;-75
2023/07/03 04:31:03;;;;;;;;;7.33;4.33;;;;;20.43;100.00;101132.97;5027278;28;66036;-75
2023/07/03 04:33:28;;;;;;;;;6.33;3.67;;;;;20.41;100.00;101129.44;5036218;28;64500;-75
2023/07/03 04:35:54;;;;;;;;;6.33;4.00;;;;;20.40;100.00;101128.56;5036192;28;51119;-74
2023/07/03 04:38:23;;;;;;;;;6.00;4.00;;;;;20.43;100.00;101130.28;5035358;28;62484;-75
2023/07/03 04:40:49;;;;;;;;;4.67;3.00;;;;;20.45;100.00;101122.19;5035692;28;45543;-75
2023/07/03 04:43:15;;;;;;;;;3.67;3.33;;;;;20.44;100.00;101109.69;5036271;28;45462;-75
2023/07/03 04:46:03;;;;;;;;;7.00;4.00;;;;;20.45;100.00;101120.38;5035807;28;45460;-75
2023/07/03 04:48:29;;;;;;;;;6.67;5.00;;;;;20.47;100.00;101118.59;5036054;28;46085;-75
2023/07/03 04:50:55;;;;;;;;;7.00;5.00;;;;;20.43;100.00;101111.50;5036309;28;45446;-76
2023/07/03 04:53:20;;;;;;;;;8.67;5.00;;;;;20.51;100.00;101124.78;5035263;28;64560;-75
2023/07/03 04:55:46;;;;;;;;;4.33;4.33;;;;;20.54;100.00;101113.94;5035579;28;45301;-74
2023/07/03 04:58:11;;;;;;;;;4.67;4.67;;;;;20.55;100.00;101115.69;5034228;28;47170;-75
2023/07/03 05:00:37;;;;;;;;;6.00;4.33;;;;;20.56;100.00;101115.69;5035392;28;66275;-75
2023/07/03 05:03:04;;;;;;;;;5.67;3.33;;;;;20.57;100.00;101117.44;5035798;28;45511;-75
2023/07/03 05:05:29;;;;;;;;;5.67;4.67;;;;;20.57;100.00;101119.25;5035970;28;45504;-75
2023/07/03 05:07:55;;;;;;;;;5.67;3.00;;;;;20.58;100.00;101126.38;5035873;28;46459;-75
2023/07/03 05:10:21;;;;;;;;;5.33;5.33;;;;;20.58;100.00;101121.00;5034389;28;45344;-74
2023/07/03 05:12:47;;;;;;;;;6.00;3.67;;;;;20.60;100.00;101119.13;5003822;22;45461;-75
2023/07/03 05:15:14;;;;;;;;;5.33;4.00;;;;;20.60;100.00;101127.19;5035921;28;45541;-76
2023/07/03 05:17:39;;;;;;;;;3.00;3.00;;;;;20.63;100.00;101127.13;5035358;28;45954;-75
2023/07/03 05:20:10;;;;;;;;;8.00;5.33;;;;;20.63;100.00;101129.81;5035526;28;52027;-74
2023/07/03 05:22:40;;;;;;;;;4.67;4.33;;;;;20.63;100.00;101122.63;5035611;28;45433;-75
2023/07/03 05:25:07;;;;;;;;;9.67;5.33;;;;;20.66;100.00;101124.34;5035800;28;45480;-75
2023/07/03 05:27:33;;;;;;;;;4.33;4.33;;;;;20.68;100.00;101114.47;5034885;28;47620;-75
2023/07/03 05:29:58;;;;;;;;;6.33;3.00;;;;;20.75;100.00;101120.56;5035497;28;45293;-75
2023/07/03 05:32:24;;;;;;;;;5.67;5.00;;;;;20.73;100.00;101115.22;5034836;28;55177;-75
2023/07/03 05:34:50;;;;;;;;;7.33;4.33;;;;;20.79;100.00;101117.75;5035438;28;45467;-75
2023/07/03 05:37:15;;;;;;;;;8.67;7.00;;;;;20.81;100.00;101115.91;5034644;28;61436;-75
2023/07/03 05:39:41;;;;;;;;;7.67;6.00;;;;;20.86;100.00;101118.47;5034377;28;69586;-75
2023/07/03 05:42:07;;;;;;;;;8.33;5.33;;;;;20.88;100.00;101120.19;5034830;28;45497;-75
2023/07/03 05:44:32;;;;;;;;;5.33;4.00;;;;;20.86;100.00;101113.97;5034684;28;45336;-75
2023/07/03 05:46:58;;;;;;;;;5.00;4.00;;;;;20.90;100.00;101110.28;5035077;28;46421;-75
2023/07/03 05:49:23;;;;;;;;;7.33;5.00;;;;;20.94;100.00;101121.84;5034040;28;63406;-75
2023/07/03 05:51:48;;;;;;;;;5.00;3.33;;;;;21.01;100.00;101111.81;5027700;28;45484;-75
2023/07/03 05:54:16;;;;;;;;;6.00;3.33;;;;;21.06;100.00;101113.44;5035065;28;45514;-76
2023/07/03 05:56:43;;;;;;;;;3.00;3.00;;;;;21.13;100.00;101116.81;5034019;28;45906;-76
2023/07/03 05:59:08;;;;;;;;;5.00;5.00;;;;;21.16;100.00;101124.81;5038214;28;45447;-75
2023/07/03 06:01:34;;;;;;;;;3.67;3.00;;;;;21.21;100.00;101116.63;5038614;28;45299;-76
2023/07/03 06:03:59;;;;;;;;;3.00;3.00;;;;;21.22;100.00;101116.56;5038939;28;45514;-75
2023/07/03 06:06:25;;;;;;;;;4.33;3.00;;;;;21.22;100.00;101119.25;5038448;28;47224;-77
2023/07/03 06:08:50;;;;;;;;;4.67;4.00;;;;;21.19;100.00;101122.00;5038106;28;45605;-76
2023/07/03 06:11:15;;;;;;;;;2.67;2.67;;;;;21.14;100.00;101113.19;5037833;28;62677;-76
2023/07/03 06:13:41;;;;;;;;;4.33;3.33;;;;;21.13;100.00;101120.38;5031439;28;62278;-75
2023/07/03 06:16:06;;;;;;;;;4.00;4.00;;;;;21.08;100.00;101116.94;5033255;28;47802;-75
2023/07/03 06:18:31;;;;;;;;;5.00;2.33;;;;;21.07;100.00;101115.19;5033032;28;62406;-76
2023/07/03 06:20:57;;;;;;;;;4.00;4.00;;;;;21.06;100.00;101128.66;5035516;28;63803;-75
2023/07/03 06:23:22;;;;;;;;;2.00;2.00;;;;;21.03;100.00;101129.63;5035643;28;61001;-76
2023/07/03 06:25:47;;;;;;;;;4.67;3.00;;;;;21.05;100.00;101124.22;5032460;28;56065;-76
2023/07/03 06:28:13;;;;;;;;;5.00;3.00;;;;;21.00;100.00;101118.97;5032643;28;45348;-76
2023/07/03 06:30:39;;;;;;;;;5.67;4.00;;;;;20.98;100.00;101118.13;5032919;28;65834;-77
2023/07/03 06:33:04;;;;;;;;;3.00;3.00;;;;;20.91;100.00;101119.22;5035933;28;45383;-76
2023/07/03 06:35:29;;;;;;;;;4.00;4.00;;;;;20.93;100.00;101128.09;5036532;28;46320;-76
2023/07/03 06:38:00;;;;;;;;;3.00;3.00;;;;;20.98;100.00;101122.59;5037404;28;59608;-76
2023/07/03 06:40:26;;;;;;;;;4.67;4.00;;;;;21.04;100.00;101133.19;5038737;28;45332;-76
2023/07/03 06:42:52;;;;;;;;;4.67;4.00;;;;;21.08;100.00;101121.44;5036482;28;45689;-76
2023/07/03 06:45:18;;;;;;;;;5.67;3.33;;;;;21.16;100.00;101123.00;5035900;28;46661;-76
2023/07/03 06:47:43;;;;;;;;;4.00;3.00;;;;;21.22;100.00;101113.00;5037366;28;45409;-76
2023/07/03 06:50:09;;;;;;;;;6.00;3.00;;;;;21.33;100.00;101118.97;5033237;28;55677;-76
2023/07/03 06:52:35;;;;;;;;;5.33;3.00;;;;;21.38;100.00;101114.34;5032679;28;45337;-75
2023/07/03 06:55:01;;;;;;;;;7.33;3.33;;;;;21.44;100.00;101117.72;5033689;28;47524;-76
2023/07/03 06:57:26;;;;;;;;;7.00;3.67;;;;;21.50;100.00;101113.09;5032451;28;45525;-76
2023/07/03 06:59:51;;;;;;;;;2.00;2.00;;;;;21.50;100.00;101108.59;5037036;28;45454;-77
2023/07/03 07:02:17;;;;;;;;;6.33;4.33;;;;;21.54;100.00;101110.28;5035802;28;53496;-76
2023/07/03 07:04:44;;;;;;;;;1.00;1.00;;;;;21.57;100.00;101118.28;5028282;28;70066;-76
2023/07/03 07:07:09;;;;;;;;;3.67;3.67;;;;;21.67;100.00;101126.91;5036586;28;45847;-77
2023/07/03 07:09:34;;;;;;;;;6.33;3.00;;;;;21.66;100.00;101130.53;5030198;28;45293;-76
2023/07/03 07:12:00;;;;;;;;;4.33;3.00;;;;;21.66;100.00;101131.41;5034703;28;62100;-76
2023/07/03 07:14:25;;;;;;;;;3.33;3.33;;;;;21.64;100.00;101118.97;5026774;28;65983;-76
2023/07/03 07:16:50;;;;;;;;;4.67;2.00;;;;;21.72;100.00;101133.03;5030346;28;49130;-75
2023/07/03 07:19:16;;;;;;;;;5.33;3.00;;;;;21.72;100.00;101124.97;5035839;28;45592;-77
2023/07/03 07:21:41;;;;;;;;;3.00;3.00;;;;;21.68;100.00;101124.19;5030715;28;59653;-76
2023/07/03 07:24:20;;;;;;;;;6.00;3.00;;;;;21.74;100.00;101136.56;5032598;28;47243;-76
2023/07/03 07:26:46;;;;;;;;;3.67;2.00;;;;;21.75;100.00;101143.69;5027235;28;45454;-76
2023/07/03 07:29:11;;;;;;;;;3.00;3.00;;;;;21.74;100.00;101139.25;5031229;28;45515;-76
2023/07/03 07:31:37;;;;;;;;;4.00;4.00;;;;;21.71;100.00;101142.03;5032305;28;45895;-76
2023/07/03 07:34:04;;;;;;;;;6.00;4.00;;;;;21.67;100.00;101129.59;5035605;28;46188;-76
2023/07/03 07:36:30;;;;;;;;;5.67;3.00;;;;;21.71;100.00;101144.72;5030658;28;46031;-76
2023/07/03 07:38:55;;;;;;;;;4.33;3.00;;;;;21.68;100.00;101143.00;5031397;28;45578;-76
2023/07/03 07:41:21;;;;;;;;;5.33;4.33;;;;;21.72;100.00;101143.78;5029829;28;45541;-76
2023/07/03 07:43:48;;;;;;;;;3.00;3.00;;;;;21.75;100.00;101145.50;5032087;28;46246;-76
2023/07/03 07:46:14;;;;;;;;;3.00;3.00;;;;;21.78;100.00;101148.97;5032602;28;45512;-77
2023/07/03 07:48:40;;;;;;;;;4.33;3.67;;;;;21.80;100.00;101146.25;5034335;28;45427;-77
2023/07/03 07:51:09;;;;;;;;;4.33;3.00;;;;;21.86;100.00;101154.13;5035589;28;45560;-76
2023/07/03 07:53:35;;;;;;;;;3.00;3.00;;;;;21.96;100.00;101143.03;5030400;28;47484;-76
2023/07/03 07:56:00;;;;;;;;;5.00;4.00;;;;;22.05;100.00;101149.03;5034799;28;45472;-77
2023/07/03 07:58:26;;;;;;;;;4.00;4.00;;;;;21.98;100.00;101138.47;5034478;28;45438;-76
2023/07/03 08:00:57;;;;;;;;;1.67;1.00;;;;;21.91;100.00;101147.69;5034962;28;45579;-76
2023/07/03 08:03:22;;;;;;;;;3.00;2.00;;;;;21.95;100.00;101141.28;5033524;28;46414;-75
2023/07/03 08:05:48;;;;;;;;;3.00;3.00;;;;;22.00;100.00;101137.56;5031012;28;45854;-76
2023/07/03 08:08:14;;;;;;;;;5.67;4.00;;;;;22.09;100.00;101148.03;5030171;28;64712;-76
2023/07/03 08:10:40;;;;;;;;;5.00;4.00;;;;;22.09;100.00;101146.22;5031453;28;59963;-76
2023/07/03 08:13:06;;;;;;;;;5.00;3.33;;;;;22.14;100.00;101148.78;5035329;28;47534;-77
2023/07/03 08:15:31;;;;;;;;;4.00;3.00;;;;;22.18;100.00;101145.09;5028168;28;45249;-77
2023/07/03 08:17:57;;;;;;;;;3.00;3.00;;;;;22.28;100.00;101151.06;5028613;28;63410;-77
2023/07/03 08:20:22;;;;;;;;;3.67;3.67;;;;;22.36;100.00;101147.16;5031091;28;45418;-76
2023/07/03 08:22:48;;;;;;;;;5.33;4.00;;;;;22.42;100.00;101135.31;5031551;28;47068;-77
2023/07/03 08:25:13;;;;;;;;;5.33;4.00;;;;;22.49;100.00;101135.09;5034178;28;45921;-78
2023/07/03 08:27:44;;;;;;;;;5.00;3.00;;;;;22.57;100.00;101142.00;5028827;28;45225;-78
2023/07/03 08:30:10;;;;;;;;;5.00;3.33;;;;;22.59;100.00;101143.72;5034303;28;45589;-77
2023/07/03 08:32:35;;;;;;;;;5.00;4.00;;;;;22.49;100.00;101143.16;5031546;28;46550;-75
2023/07/03 08:35:01;;;;;;;;;4.33;2.00;;;;;22.44;100.00;101138.84;5033417;28;46006;-75
2023/07/03 08:37:26;;;;;;;;;2.33;2.33;;;;;22.32;100.00;101136.56;5033188;28;45519;-76
2023/07/03 08:39:52;;;;;;;;;4.33;3.33;;;;;22.27;100.00;101142.09;5033905;28;46510;-77
2023/07/03 08:42:27;;;;;;;;;4.33;2.00;;;;;22.25;100.00;101145.75;5031477;28;47352;-77
2023/07/03 08:44:53;;;;;;;;;3.00;3.00;;;;;22.20;100.00;101149.47;5030053;28;45447;-77
2023/07/03 08:47:23;;;;;;;;;5.33;3.67;;;;;22.13;100.00;101152.41;5031368;28;45411;-80
2023/07/03 08:49:49;;;;;;;;;6.33;3.67;;;;;22.12;100.00;101147.97;5030991;28;46671;-75
2023/07/03 08:52:21;;;;;;;;;5.00;4.00;;;;;22.08;100.00;101152.53;5025487;28;72021;-76
2023/07/03 08:54:48;;;;;;;;;6.33;5.00;;;;;22.00;100.00;101151.91;5020993;28;45621;-78
2023/07/03 08:57:14;;;;;;;;;4.00;4.00;;;;;21.95;100.00;101157.41;5020461;28;46429;-76
2023/07/03 08:59:39;;;;;;;;;3.33;3.33;;;;;21.91;100.00;101157.56;5033511;28;63837;-77
2023/07/03 09:02:32;;;;;;;;;6.33;5.00;;;;;21.84;100.00;101158.66;5031411;28;47171;-77
2023/07/03 09:05:21;;;;;;;;;5.00;3.00;;;;;21.91;100.00;101154.88;5032641;28;45378;-77
2023/07/03 09:07:56;;;;;;;;;3.00;3.00;;;;;22.00;100.00;101159.06;4992330;28;45553;-75
2023/07/03 09:10:27;;;;;;;;;3.00;3.00;;;;;22.09;100.00;101166.84;5033486;28;45583;-76
2023/07/03 09:12:56;;;;;;;;;3.67;3.67;;;;;22.16;100.00;101161.28;5033449;28;47564;-78
2023/07/03 09:15:30;;;;;;;;;3.67;3.67;;;;;22.29;100.00;101153.69;5031863;28;45384;-77
2023/07/03 09:17:57;;;;;;;;;8.00;3.33;;;;;22.42;100.00;101155.03;5027977;28;45451;-77
2023/07/03 09:20:25;;;;;;;;;2.67;2.67;;;;;22.61;100.00;101143.66;5032641;28;45498;-78
2023/07/03 09:23:08;;;;;;;;;5.00;4.00;;;;;22.89;100.00;101146.31;5028831;28;46418;-76
2023/07/03 09:25:47;;;;;;;;;3.67;3.00;;;;;23.08;100.00;101151.94;5030858;28;45667;-76
2023/07/03 09:28:12;;;;;;;;;7.67;3.67;;;;;23.17;100.00;101144.41;5031210;28;45647;-76
2023/07/03 09:30:38;;;;;;;;;4.00;3.00;;;;;23.26;100.00;101152.16;5026700;28;63285;-76
2023/07/03 09:33:06;;;;;;;;;3.67;3.67;;;;;23.35;100.00;101150.06;5037392;28;46180;-76
2023/07/03 09:35:40;;;;;;;;;5.00;5.00;;;;;23.40;100.00;101146.25;5040587;28;45459;-76
2023/07/03 09:38:36;;;;;;;;;4.00;3.00;;;;;23.51;100.00;101152.13;5040764;28;45374;-76
2023/07/03 09:41:04;;;;;;;;;2.67;2.00;;;;;23.61;100.00;101152.66;5035274;28;45547;-76
2023/07/03 09:43:30;;;;;;;;;3.67;3.67;;;;;23.57;100.00;101151.00;5040115;28;46804;-76
2023/07/03 09:46:22;;;;;;;;;5.00;5.00;;;;;23.57;100.00;101142.91;5040307;28;45453;-76
2023/07/03 09:48:48;;;;;;;;;5.00;4.00;;;;;23.63;100.00;101155.31;5035962;28;45423;-75
2023/07/03 09:51:19;;;;;;;;;7.67;4.67;;;;;23.59;100.00;101145.56;5036803;28;45319;-78
2023/07/03 09:53:45;;;;;;;;;2.67;2.00;;;;;23.56;100.00;101151.94;5039799;28;46614;-77
2023/07/03 09:56:13;;;;;;;;;6.00;5.33;;;;;23.51;99.94;101151.25;5039752;28;65374;-77
2023/07/03 09:58:44;;;;;;;;;5.00;2.00;;;;;23.39;99.24;101155.28;5034807;28;45396;-77
2023/07/03 10:01:16;;;;;;;;;5.67;5.00;;;;;23.38;100.00;101161.59;5034879;28;45509;-76
2023/07/03 10:03:41;;;;;;;;;6.33;2.33;;;;;23.37;99.83;101164.34;5032945;28;46713;-76
2023/07/03 10:06:14;;;;;;;;;5.00;5.00;;;;;23.43;99.77;101165.00;5037069;28;55955;-76
2023/07/03 10:08:50;;;;;;;;;3.67;3.00;;;;;23.56;99.31;101156.47;5039426;28;45461;-76
2023/07/03 10:11:21;;;;;;;;;3.00;2.00;;;;;23.69;99.32;101165.88;5037025;28;45431;-78
2023/07/03 10:13:48;;;;;;;;;3.00;1.67;;;;;23.76;97.65;101181.78;5038408;28;46665;-76
2023/07/03 10:16:15;;;;;;;;;6.00;4.33;;;;;23.70;97.06;101173.00;5037913;28;45431;-76
2023/07/03 10:18:46;;;;;;;;;5.00;4.00;;;;;23.63;96.29;101171.50;5035366;28;45609;-77
2023/07/03 10:21:16;;;;;;;;;2.67;2.00;;;;;23.60;94.98;101171.59;5039034;28;45470;-75
2023/07/03 10:23:44;;;;;;;;;6.00;3.33;;;;;23.56;94.22;101165.44;5038248;28;47375;-76
2023/07/03 10:26:16;;;;;;;;;3.00;2.00;;;;;23.51;92.68;101164.72;5036684;28;45433;-75
2023/07/03 10:28:58;;;;;;;;;3.00;3.00;;;;;23.46;93.50;101178.38;5037750;28;45805;-76
2023/07/03 10:31:30;;;;;;;;;6.00;4.00;;;;;23.45;92.93;101164.97;5041216;28;45603;-77
2023/07/03 10:34:01;;;;;;;;;4.00;2.33;;;;;23.54;92.97;101167.28;5041131;28;47177;-77
2023/07/03 10:36:28;;;;;;;;;3.00;3.00;;;;;23.56;89.72;101168.13;5039640;28;45646;-76
2023/07/03 10:38:59;;;;;;;;;5.00;3.00;;;;;23.50;86.73;101171.06;5037382;28;45310;-76
2023/07/03 10:41:31;;;;;;;;;3.00;3.00;;;;;23.42;86.07;101171.31;5037390;28;45653;-77
2023/07/03 10:44:14;;;;;;;;;3.00;1.00;;;;;23.37;84.58;101175.13;5034709;28;46985;-77
2023/07/03 10:46:58;;;;;;;;;5.33;4.00;;;;;23.38;84.63;101163.41;5031261;28;65319;-76
2023/07/03 10:49:28;;;;;;;;;4.33;2.00;;;;;23.40;81.52;101167.81;5033159;28;45356;-76
2023/07/03 10:52:15;;;;;;;;;3.33;1.33;;;;;23.45;78.91;101160.44;5030404;28;45369;-76
2023/07/03 10:54:51;;;;;;;;;5.00;2.00;;;;;23.49;75.41;101163.91;5035371;28;47169;-76
2023/07/03 10:57:23;;;;;;;;;2.00;1.00;;;;;23.48;72.67;101165.69;5033056;28;45491;-75
2023/07/03 10:59:52;;;;;;;;;3.33;2.00;;;;;23.47;71.39;101149.59;5036634;28;45433;-76
2023/07/03 11:02:42;;;;;;;;;1.67;1.00;;;;;23.48;72.17;101162.13;5032335;28;45470;-76
2023/07/03 11:05:22;;;;;;;;;4.33;2.00;;;;;23.47;71.05;101166.66;5032458;28;46988;-76
2023/07/03 11:08:13;;;;;;;;;1.00;1.00;;;;;23.46;71.32;101151.41;5034534;28;45454;-76
2023/07/03 11:11:30;;;;;;;;;2.67;2.00;;;;;23.49;70.70;101154.00;5033705;28;45316;-78
2023/07/03 11:14:25;;;;;;;;;3.00;2.00;;;;;23.53;69.94;101168.22;5012561;28;45552;-78
2023/07/03 11:17:19;;;;;;;;;2.00;2.00;;;;;23.61;68.15;101149.09;5035928;28;47224;-79
2023/07/03 11:19:50;;;;;;;;;2.33;1.67;;;;;23.63;66.17;101155.31;5035542;28;45547;-79
2023/07/03 11:22:19;;;;;;;;;2.67;2.00;;;;;23.62;65.68;101158.94;5034708;28;45590;-76
2023/07/03 11:25:09;;;;;;;;;4.00;1.67;;;;;23.62;67.08;101149.03;5037139;28;45550;-79